Thursday, June 21, 2018, 6:28 AM EDT
Back to Local

KAKR, Akron Fulton International

Location: Akron, OH, United States Lat: 41.033
Local Time: 6:28 AM EDT (10:28 GMT) Lon: -81.467
Time Zone: US/Eastern Elev: 1069 ft

Show me the last for .
Show Decoded

2018-06-21 05:54 METAR KAKR 210954Z AUTO 00000KT 10SM CLR 16/13 A2986 RMK AO2 SLP103 T01560133 =
2018-06-21 04:54 METAR KAKR 210854Z AUTO 05003KT 10SM SCT060 17/14 A2985 RMK AO2 SLP100 T01670139
                 58002 =
2018-06-21 03:54 METAR KAKR 210754Z AUTO 01004KT 10SM SCT029 17/14 A2985 RMK AO2 SLP102 T01720139
                 =
2018-06-21 02:54 METAR KAKR 210654Z AUTO 01004KT 10SM SCT023 17/14 A2985 RMK AO2 SLP100 T01720139
                 =
2018-06-21 02:22 METAR KAKR 210622Z AUTO 35004KT 10SM BKN022 18/14 A2985 RMK AO2 T01780139 =
2018-06-21 01:54 METAR KAKR 210554Z AUTO 01003KT 10SM CLR 18/14 A2985 RMK AO2 SLP102 T01780139
                 10228 20178 56002 =
2018-06-21 00:54 METAR KAKR 210454Z AUTO 36005KT 10SM FEW015 SCT080 18/16 A2985 RMK AO2 SLP103
                 T01830156 402670183 =
2018-06-21 00:50 METAR KAKR 210450Z AUTO 36006KT 10SM SCT015 BKN080 18/16 A2986 RMK AO2 =
2018-06-21 00:24 METAR KAKR 210424Z AUTO 35005KT 10SM BKN015 19/16 A2987 RMK AO2 T01890161 =
2018-06-20 23:54 METAR KAKR 210354Z AUTO 35005KT 10SM CLR 19/17 A2986 RMK AO2 SLP105 T01940167 =
2018-06-20 23:23 METAR KAKR 210323Z AUTO 03006KT 10SM SCT013 SCT023 20/17 A2986 RMK AO2 T02000167
                 =
2018-06-20 22:54 METAR KAKR 210254Z AUTO 36006KT 10SM OVC013 21/17 A2986 RMK AO2 SLP104 T02060167
                 53012 =
2018-06-20 21:54 METAR KAKR 210154Z AUTO 02007KT 10SM OVC014 21/18 A2984 RMK AO2 SLP096 T02110178
                 =
2018-06-20 21:41 METAR KAKR 210141Z AUTO 02006KT 10SM OVC014 21/17 A2983 RMK AO2 T02110172 =
2018-06-20 21:25 METAR KAKR 210125Z AUTO 04006KT 10SM BKN015 BKN080 21/18 A2983 RMK AO2 T02110178
                 =
2018-06-20 21:14 METAR KAKR 210114Z AUTO 04007KT 10SM SCT015 BKN080 BKN095 21/18 A2982 RMK AO2
                 T02110178 =
2018-06-20 21:05 METAR KAKR 210105Z AUTO 04006KT 10SM BKN015 OVC090 22/18 A2982 RMK AO2 T02170178
                 =
2018-06-20 20:54 METAR KAKR 210054Z AUTO 04005KT 10SM SCT015 OVC090 22/18 A2982 RMK AO2 SLP091
                 T02170178 =
2018-06-20 20:51 METAR KAKR 210051Z AUTO 03007KT 10SM SCT015 OVC090 22/18 A2982 RMK AO2 =
2018-06-20 20:41 METAR KAKR 210041Z AUTO 03005KT 10SM BKN014 OVC090 22/18 A2982 RMK AO2 T02170178
                 =
2018-06-20 20:13 METAR KAKR 210013Z AUTO 02007KT 10SM OVC015 22/18 A2982 RMK AO2 T02220183 =
2018-06-20 19:54 METAR KAKR 202354Z AUTO 03006KT 10SM OVC014 23/18 A2981 RMK AO2 SLP088 60000
                 T02280183 10267 20228 53001 =
2018-06-20 19:45 METAR KAKR 202345Z AUTO 05007KT 10SM BKN014 OVC019 23/19 A2981 RMK AO2 T02280189
                 =
2018-06-20 18:54 METAR KAKR 202254Z AUTO 01007KT 10SM BKN016 BKN037 OVC050 24/19 A2980 RMK AO2
                 SLP084 T02390189 =
2018-06-20 17:54 METAR KAKR 202154Z AUTO 35011KT 10SM FEW018 BKN033 OVC050 25/20 A2980 RMK AO2
                 SLP083 T02500200 =
2018-06-20 17:25 METAR KAKR 202125Z AUTO 35009KT 10SM FEW020 BKN040 OVC048 25/20 A2981 RMK AO2
                 T02500200 =
2018-06-20 16:54 METAR KAKR 202054Z AUTO 36010KT 10SM BKN022 BKN029 OVC036 26/20 A2981 RMK AO2
                 SLP086 60000 T02560200 55008 =
2018-06-20 16:50 METAR KAKR 202050Z AUTO 34008KT 10SM BKN022 OVC033 26/20 A2981 RMK AO2 =
2018-06-20 16:03 METAR KAKR 202003Z AUTO 35007KT 10SM SCT024 OVC035 27/21 A2982 RMK AO2 T02670206
                 =
2018-06-20 15:54 METAR KAKR 201954Z AUTO 33005KT 10SM FEW018 BKN024 OVC035 27/21 A2982 RMK AO2
                 RAB08E18 SLP090 P0000 T02670206 =
2018-06-20 14:54 METAR KAKR 201854Z AUTO 32004KT 10SM BKN021 BKN029 26/20 A2983 RMK AO2 SLP094
                 T02560200 =
2018-06-20 14:16 METAR KAKR 201816Z AUTO 02003KT 10SM BKN020 BKN024 OVC030 26/20 A2984 RMK AO2
                 T02560200 =
2018-06-20 13:54 METAR KAKR 201754Z AUTO 00000KT 10SM BKN030 26/20 A2985 RMK AO2 SLP099 60000
                 T02560200 10256 20217 56007 =
2018-06-20 13:50 METAR KAKR 201750Z AUTO VRB03KT 10SM BKN030 25/19 A2985 RMK AO2 =
2018-06-20 12:54 METAR KAKR 201654Z AUTO 00000KT 10SM OVC016 24/19 A2987 RMK AO2 RAE01 SLP106
                 P0000 T02390194 =
2018-06-20 11:54 METAR KAKR 201554Z AUTO 04007KT 9SM -RA OVC015 23/19 A2987 RMK AO2 RAB37 SLP107
                 P0000 T02280194 =
2018-06-20 11:51 METAR KAKR 201551Z AUTO 05007KT 9SM -RA OVC015 23/19 A2987 RMK AO2 RAB37 P0000 =
2018-06-20 10:54 METAR KAKR 201454Z AUTO 36005KT 10SM OVC014 23/19 A2987 RMK AO2 RAB25E41 SLP107
                 P0000 60000 T02330189 58003 =
2018-06-20 09:54 METAR KAKR 201354Z AUTO 26006KT 10SM OVC011 24/19 A2988 RMK AO2 SLP109 T02390189
                 =
2018-06-20 09:36 METAR KAKR 201336Z AUTO 25005KT 10SM BKN011 OVC016 23/19 A2988 RMK AO2 T02330189
                 =
2018-06-20 09:04 METAR KAKR 201304Z AUTO 20004KT 10SM BKN021 BKN040 BKN120 23/18 A2988 RMK AO2
                 T02330178 =
2018-06-20 08:54 METAR KAKR 201254Z AUTO 19003KT 10SM SCT023 BKN040 BKN120 23/18 A2988 RMK AO2
                 SLP110 T02280178 =
2018-06-20 08:06 METAR KAKR 201206Z AUTO 19003KT 10SM SCT020 BKN045 BKN110 22/17 A2988 RMK AO2
                 T02220167 =
2018-06-20 07:54 METAR KAKR 201154Z AUTO 16003KT 10SM BKN020 OVC046 22/17 A2988 RMK AO2 SLP111
                 T02170167 10222 20200 58004 =
2018-06-20 07:45 METAR KAKR 201145Z AUTO 17004KT 10SM BKN020 OVC070 22/17 A2989 RMK AO2 T02170167
                 =
2018-06-20 07:21 METAR KAKR 201121Z AUTO 00000KT 10SM FEW025 BKN080 OVC090 22/17 A2989 RMK AO2
                 T02170167 =
2018-06-20 06:54 METAR KAKR 201054Z AUTO 00000KT 10SM BKN025 BKN031 OVC035 21/17 A2989 RMK AO2
                 SLP113 T02110167 =

Support USWX by starting your Amazon purchase here.